Latest Coastal Weather Observations for Ceduna

IDS60701

Issued at 7:11 am CST Saturday 30 July 2016 (issued every 10 minutes, with the page automatically refreshed every 10 minutes)

About coastal observations | Map of coastal stations | Coastal observations for SA | Marine services | Other Formats
Station Details ID: 018012 Name: CEDUNA AMO Lat: -32.13 Lon: 133.70 Height: 15.3 m
Data from the previous 72 hours. | See also: Recent months at Ceduna
Date/Time
CST
Temp
°C
Wind Pressure Rain since
9am
mm
Weather Cloud Vis
km
Sea
Height
m
Swell
Dir  Spd
kts
Gust
kts
hPa Trend Height
m
Period
s
Dir
30/07:00am 16.1 N 15 20 1016.4 - 0.0 - Cloudy 10 - - - -
30/06:30am 15.1 N 14 21 1016.2 - 0.0 - Partly cloudy 10 - - - -
30/06:00am 15.1 N 15 19 1016.1 F 0.0 - Cloudy 10 - - - -
30/05:30am 15.1 N 14 20 1016.3 - 0.0 - - 10 - - - -
30/05:00am 15.2 N 13 16 1016.4 - 0.0 - Partly cloudy 10 - - - -
30/04:30am 15.3 N 11 17 1016.6 - 0.0 - Partly cloudy 10 - - - -
30/04:00am 14.8 N 10 12 1016.9 - 0.0 - Partly cloudy 10 - - - -
30/03:30am 14.6 N 10 12 1017.2 - 0.0 - Partly cloudy 10 - - - -
30/03:00am 15.1 N 13 16 1017.1 F 0.0 - Cloudy 10 - - - -
30/02:30am 15.2 N 12 17 1017.3 - 0.0 - - 10 - - - -
30/02:00am 14.9 NNE 11 14 1017.6 - 0.0 - - 10 - - - -
30/01:30am 15.0 NNE 10 13 1017.7 - 0.0 - - 10 - - - -
30/01:00am 12.6 NE 8 10 1018.1 - 0.0 - - 10 - - - -
30/12:30am 13.3 NNE 9 12 1018.7 - 0.0 - - 10 - - - -
30/12:00am 14.7 NNE 11 13 1019.1 F 0.0 - Cloudy 10 - - - -
 
Date/Time
CST
Temp
°C
Wind Pressure Rain since
9am
mm
Weather Cloud Vis
km
Sea
Height
m
Swell
Dir  Spd
kts
Gust
kts
hPa Trend Height
m
Period
s
Dir
29/11:30pm 14.8 NNE 11 13 1019.4 - 0.0 - - 10 - - - -
29/11:00pm 13.2 NE 8 10 1019.7 - 0.0 - - 10 - - - -
29/10:30pm 12.3 NE 7 8 1019.9 - 0.0 - - 10 - - - -
29/10:00pm 12.4 NE 8 9 1020.1 - 0.0 - - 10 - - - -
29/09:30pm 13.0 NE 7 8 1020.2 - 0.0 - - 10 - - - -
29/09:00pm 13.2 NE 8 9 1019.9 F 0.0 - Cloudy 10 - - - -
29/08:30pm 13.4 NE 9 10 1019.9 - 0.0 - - 10 - - - -
29/08:00pm 13.0 NE 6 7 1020.0 - 0.0 - - 10 - - - -
29/07:30pm 13.2 NE 8 9 1019.9 - 0.0 - - 10 - - - -
29/07:00pm 13.3 NE 8 10 1019.9 - 0.0 - - 10 - - - -
29/06:30pm 13.2 NE 8 9 1019.8 - 0.0 - - 10 - - - -
29/06:00pm 14.6 NE 7 9 1019.8 F 0.0 - Mostly cloudy 10 - - - -
29/05:30pm 17.1 NNE 5 5 1019.8 - 0.0 - - 10 - - - -
29/05:00pm 20.0 NNE 6 7 1019.8 - 0.0 - - 10 - - - -
29/04:30pm 21.0 NE 4 6 1020.2 - 0.0 - - 10 - - - -
29/04:00pm 20.7 NNE 6 8 1020.3 - 0.0 - - 10 - - - -
29/03:30pm 21.1 N 6 9 1020.3 - 0.0 - - 10 - - - -
29/03:00pm 21.0 N 6 8 1020.4 F 0.0 - Partly cloudy 10 - - - -
29/02:30pm 21.0 NNW 6 11 1020.9 - 0.0 - - 10 - - - -
29/02:00pm 20.5 NNW 7 10 1021.4 - 0.0 - - 10 - - - -
29/01:30pm 20.2 NNW 8 12 1021.8 - 0.0 - - 10 - - - -
29/01:00pm 19.5 NNW 10 14 1022.5 - 0.0 - - 10 - - - -
29/12:30pm 19.1 N 11 14 1023.0 - 0.0 - - 10 - - - -
29/12:00pm 18.4 NNW 11 14 1023.7 F 0.0 - Mostly clear 10 - - - -
29/11:30am 16.6 NNW 11 14 1024.2 - 0.0 - - 10 - - - -
29/11:00am 15.4 NNW 10 14 1024.6 - 0.0 - - 10 - - - -
29/10:30am 14.4 N 8 11 1024.8 - 0.0 - - 10 - - - -
29/10:00am 13.0 N 9 10 1025.0 - 0.0 - - 10 - - - -
29/09:30am 10.6 NNE 7 8 1025.2 - 0.0 - - 10 - - - -
29/09:00am 9.0 NNE 7 9 1025.1 F 0.0 - Mostly cloudy 10 - - - -
29/08:30am 7.7 NNE 7 8 1025.0 - 0.0 - - 10 - - - -
29/08:00am 6.1 NNE 6 7 1025.1 - 0.0 - - 10 - - - -
29/07:30am 4.3 NNE 7 8 1024.7 - 0.0 - - 10 - - - -
29/07:00am 2.2 NE 6 7 1024.7 - 0.0 - - 10 - - - -
29/06:30am 2.1 NE 6 7 1024.6 - 0.0 - - 10 - - - -
29/06:00am 2.6 NE 5 6 1024.5 F 0.0 - Partly cloudy 10 - - - -
29/05:30am 2.8 NE 5 5 1024.4 - 0.0 - - 10 - - - -
29/05:00am 3.6 NE 6 7 1024.2 - 0.0 - - 10 - - - -
29/04:30am 3.2 NE 6 7 1024.1 - 0.0 - - 10 - - - -
29/04:00am 3.3 NE 8 9 1024.1 - 0.0 - - 10 - - - -
29/03:30am 3.2 NE 7 7 1024.5 - 0.0 - - 10 - - - -
29/03:00am 3.8 NE 5 5 1024.8 F 0.0 - - 10 - - - -
29/02:30am 4.6 NE 9 10 1024.7 - 0.0 - - 10 - - - -
29/02:00am 3.7 NE 5 6 1025.4 - 0.0 - - 10 - - - -
29/01:30am 3.7 ENE 4 7 1025.4 - 0.0 - - 10 - - - -
29/01:00am 3.3 E 5 6 1025.4 - 0.0 - - 10 - - - -
29/12:30am 3.5 E 6 6 1025.7 - 0.0 - - 10 - - - -
29/12:00am 3.5 E 6 7 1025.9 F 0.0 - - 10 - - - -
 
Date/Time
CST
Temp
°C
Wind Pressure Rain since
9am
mm
Weather Cloud Vis
km
Sea
Height
m
Swell
Dir  Spd
kts
Gust
kts
hPa Trend Height
m
Period
s
Dir
28/11:30pm 4.1 ESE 5 7 1026.2 - 0.0 - - 10 - - - -
28/11:00pm 5.1 ENE 7 9 1026.0 - 0.0 - - 10 - - - -
28/10:30pm 5.6 NE 6 7 1026.4 - 0.0 - - 10 - - - -
28/10:00pm 5.6 NE 7 9 1026.4 - 0.0 - - 10 - - - -
28/09:30pm 5.8 ENE 4 5 1026.6 - 0.0 - - 10 - - - -
28/09:00pm 6.1 ENE 5 6 1026.7 F 0.0 - - 10 - - - -
28/08:30pm 7.1 E 6 8 1026.8 - 0.0 - - 10 - - - -
28/08:00pm 8.6 ESE 7 8 1026.7 - 0.0 - - 10 - - - -
28/07:30pm 9.7 SE 7 9 1026.7 - 0.0 - - 10 - - - -
28/07:00pm 10.2 SSE 7 9 1026.6 - 0.0 - - 10 - - - -
28/06:30pm 10.1 SSE 7 8 1026.6 - 0.0 - - 10 - - - -
28/06:00pm 11.2 SSE 7 8 1026.5 F 0.0 - - 10 - - - -
28/05:30pm 13.0 S 7 9 1026.4 - 0.0 - - 10 - - - -
28/05:00pm 14.0 S 7 10 1026.4 - 0.0 - - 10 - - - -
28/04:30pm 15.2 S 7 10 1026.5 - 0.0 - - 10 - - - -
28/04:00pm 16.2 SSW 6 9 1026.5 - 0.0 - - 10 - - - -
28/03:30pm 16.0 SW 8 10 1026.8 - 0.0 - - 10 - - - -
28/03:00pm 17.8 NW 5 11 1026.7 F 0.0 - - 10 - - - -
28/02:30pm 17.3 NW 6 9 1026.9 - 0.0 - Partly cloudy 10 - - - -
28/02:00pm 17.4 WNW 6 9 1027.1 - 0.0 - Partly cloudy 10 - - - -
28/01:30pm 16.5 WNW 5 7 1027.7 - 0.0 - Partly cloudy 10 - - - -
28/01:00pm 16.4 NNW 6 9 1028.3 - 0.0 - Partly cloudy 10 - - - -
28/12:30pm 15.7 NNW 7 12 1028.9 - 0.0 - Partly cloudy 10 - - - -
28/12:00pm 15.0 N 7 9 1029.6 F 0.0 - - 10 - - - -
28/11:30am 14.0 N 6 9 1030.3 - 0.0 - - 10 - - - -
28/11:00am 14.0 NNE 6 9 1030.6 - 0.0 - - 10 - - - -
28/10:30am 13.2 N 5 7 1031.1 - 0.0 - - 10 - - - -
28/10:00am 11.3 N 4 5 1031.2 - 0.0 - - 10 - - - -
28/09:30am 9.0 NNE 4 5 1031.1 - 0.0 - - 10 - - - -
28/09:00am 6.8 NNE 3 4 1031.1 R 0.0 - - 10 - - - -
28/08:30am 4.6 NNE 2 3 1030.7 - 0.0 - - 10 - - - -
28/08:00am 2.2 NE 3 4 1030.5 - 0.0 - - 10 - - - -
28/07:30am 1.7 NE 4 5 1030.1 - 0.0 - - 10 - - - -
28/07:00am 1.0 NE 4 5 1029.6 - 0.0 - - 10 - - - -
28/06:30am 0.8 CALM 0 5 1029.5 - 0.0 - - 10 - - - -
28/06:00am 1.4 CALM 0 0 1029.7 R 0.0 - - 10 - - - -
28/05:30am 1.4 CALM 0 0 1029.5 - 0.0 - - 10 - - - -
28/05:00am 2.2 NNE 3 3 1029.1 - 0.0 - - 10 - - - -
28/04:30am 3.2 NNE 4 9 1028.8 - 0.0 - - 10 - - - -
28/04:00am 3.1 NE 4 5 1028.8 - 0.0 - - 10 - - - -
28/03:30am 2.1 NNE 4 5 1028.8 - 0.0 - - 10 - - - -
28/03:00am 2.7 NNE 4 5 1029.2 S 0.0 - - 10 - - - -
28/02:30am 2.4 NNE 4 4 1029.1 - 0.0 - - 10 - - - -
28/02:00am 3.8 NNE 5 6 1029.2 - 0.0 - - 10 - - - -
28/01:30am 4.2 N 4 6 1029.5 - 0.0 - - 10 - - - -
28/01:00am 5.1 NNE 5 6 1029.7 - 0.0 - - 10 - - - -
28/12:30am 4.7 N 5 5 1029.8 - 0.0 - - 10 - - - -
28/12:00am 4.6 NNE 2 4 1029.8 R 0.0 - - 10 - - - -
 
Date/Time
CST
Temp
°C
Wind Pressure Rain since
9am
mm
Weather Cloud Vis
km
Sea
Height
m
Swell
Dir  Spd
kts
Gust
kts
hPa Trend Height
m
Period
s
Dir
27/11:30pm 4.8 CALM 0 0 1029.5 - 0.0 - - 10 - - - -
27/11:00pm 8.1 CALM 0 0 1029.7 - 0.0 - - 10 - - - -
27/10:30pm 7.9 SSW 4 6 1029.5 - 0.0 - Partly cloudy 10 - - - -
27/10:00pm 9.1 CALM 0 0 1029.6 - 0.0 - Partly cloudy 10 - - - -
27/09:30pm 10.3 S 2 3 1029.4 - 0.0 - Partly cloudy 10 - - - -
27/09:00pm 11.0 CALM 0 0 1029.3 F 0.0 - Cloudy 10 - - - -
27/08:30pm 11.6 SSW 3 4 1029.3 - 0.0 - Cloudy 10 - - - -
27/08:00pm 12.9 S 5 7 1029.1 - 0.0 - Cloudy 10 - - - -
27/07:30pm 12.2 SW 5 9 1029.2 - 0.0 - Cloudy 10 - - - -
27/07:00pm 12.6 SW 5 8 1029.2 - 0.0 - Cloudy 10 - - - -
27/06:30pm 12.6 SW 5 7 1029.3 - 0.0 - Cloudy 10 - - - -
27/06:00pm 12.9 SW 3 4 1029.0 R 0.0 - Mostly cloudy 10 - - - -
27/05:30pm 13.2 W 5 7 1028.8 - 0.0 - Cloudy 10 - - - -
27/05:00pm 13.4 WSW 6 8 1028.8 - 0.0 - Cloudy 10 - - - -
27/04:30pm 13.6 WSW 10 13 1028.8 - 0.0 - Cloudy 10 - - - -
27/04:00pm 13.9 W 8 11 1028.5 - 0.0 - Cloudy 10 - - - -
27/03:30pm 14.1 SW 8 10 1028.4 - 0.0 - Cloudy 10 - - - -
27/03:00pm 14.2 WSW 8 11 1028.1 R 0.0 - Cloudy 10 - - - -
27/02:30pm 14.1 W 7 10 1028.1 - 0.0 - Cloudy 10 - - - -
27/02:00pm 14.2 W 9 12 1028.0 - 0.0 - Cloudy 10 - - - -
27/01:30pm 14.5 WSW 11 14 1027.8 - 0.0 - Cloudy 10 - - - -
27/01:00pm 14.6 WSW 10 12 1027.8 - 0.0 - Cloudy 10 - - - -
27/12:30pm 14.7 SW 9 12 1028.2 - 0.0 - Cloudy 10 - - - -
27/12:00pm 14.7 SW 9 13 1028.5 R 0.0 - Cloudy 10 - - - -
27/11:30am 14.7 SW 8 10 1028.2 - 0.0 - Cloudy 10 - - - -
27/11:00am 14.5 SSW 8 10 1028.2 - 0.0 - Cloudy 10 - - - -
27/10:30am 14.2 SW 7 9 1028.2 - 0.0 - Cloudy 10 - - - -
27/10:00am 13.5 WSW 8 11 1028.2 - 0.0 - Cloudy 10 - - - -
27/09:30am 13.2 SW 8 11 1027.7 - 0.0 - Cloudy 10 - - - -
27/09:00am 13.0 SW 7 9 1027.3 R 1.0 - Mostly cloudy 10 - - - -
27/08:30am 12.6 SW 11 15 1026.7 - 1.0 - Cloudy 10 - - - -
27/08:00am 12.4 SW 11 14 1026.1 - 1.0 - Cloudy 10 - - - -
27/07:30am 12.0 SW 8 11 1025.7 - 1.0 - Cloudy 10 - - - -

Other Formats:

Comma delimited format used in spreadsheet applications
http://www.bom.gov.au/fwo/IDS60701/IDS60701.94653.axf

JavaScript Object Notation format (JSON) in row-major order
http://www.bom.gov.au/fwo/IDS60701/IDS60701.94653.json